Coon Rapids, Iowa
Current Conditions -  °F | °C
As of 5:55 AM on Sunday 21 Dec 2014 (Local Time) from KCIN Reporting Station
Haze Haze  
Wind Chill: 27°   Ceiling: 400
Heat Index: 37°   Visibility: 2.5mi
Dew Point: 37°   Wind: 20mph
Humidity: 100%   Direction: 190°S
Pressure: 29.91"   Gusts: 26mph
Location:  41.87°N, 94.68°W
Report Text: KCIN 211155Z AUTO 19017G23KT 2 1/2SM BR OVC004 03/03 A2991 RMK AO2
Loading
Personal Weather Stations






























Interactive Weather Map New forecast layout! Learn more

10-Day Weather Forecast

Advertisements
Track Severe Weather on mobile